Pagrindinis puslapis
METAR-TAF:

METAR-TAF

Oro uostai :

Garoua, Kamerūnas

platuma: 09-20N, ilguma: 013-23E, Aukštis: 242 m

Dabartinis oras

Ataskaita buvo paskelbta 1 valandą ir 54 minutes, ne 20:00 UTC
Vėjas 7 kt iš Vakarų/Šiaurės Vakarų
Temperatūra 34°C
Drėgmė 34%
Slėgis 1008 hPa
Matomumas 10 km arba daugiau
nėra debesų žemiau 1500 m ir nėra kamuolinių lietaus debesų

METAR: FKKR 152000Z 30007KT CAVOK 34/16 Q1008 NOSIG

Laikas: 22:54 (21:54 UTC)

Prognozė

Ataskaita buvo paskelbta 16 valandos ir 54 minutes, ne 05:00 UTC
Prognozė galioja nuo 15 metu 06 UTC su 15 metu 18 UTC
Vėjas 10 kt iš Vakarų
Matomumas 10 km arba daugiau
nėra debesų žemiau 1500 m ir nėra kamuolinių lietaus debesų

TAF: FKKR 150500Z 1506/1518 28010KT CAVOK

Orai ataskaitas ir orų prognozės (METAR, TAF).

turimą stotys yra geltonos ir raudonos taškus žemėlapyje.

Perkelti pele per norėdami pamatyti stoties vardą.

Tada spustelėkite, norėdami matyti oro stebėjimo ir prognozės.

Norėdami pakeisti žemėlapį: spustelėkite ant žalios mygtukų su juodo kryžiaus žemyn,; žalią mygtuką su brūkšneliu, jei norite nutolinti; arba žalių rodyklių gretimoms žemėlapius.


METAR-TAF: